RPA5893 / N809MD 7700 Squawk Report (25th of September, 2018)

Aircraft E170 Reg No. N809MD Age N/A
Model Emb-170 Jet engines 2 First flight 05-04
Registered 15-05-18 Rollout 05-04 Delivered 01-06-04
Construction No. 17000022 Line No. N/A Series 100SU
ADSHEX AB0463 Airline name American Eagle Airlines Owner Republic Airline
Airfield based Indianapolis-International~IN~N First tracked 2011-04-01 17:52:05

Flight history for N809MD

Route Flight No Date Playback
???? N/A 2018-10-11 09:20:00
???? N/A 2018-10-11 01:26:00
Ronald Reagan Washington Natl (DCA) - La Guardia (LGA) YX6010 2018-10-10 23:24:00
???? N/A 2018-10-10 21:40:00
Charlotte Douglas Intl (CLT) - La Guardia (LGA) YX6103 2018-10-10 18:05:00
???? N/A 2018-10-10 16:47:00
???? N/A 2018-10-10 13:30:00
???? N/A 2018-10-10 01:20:00
???? N/A 2018-10-10 00:21:00
???? N/A 2018-10-09 16:19:00
???? N/A 2018-10-09 12:40:00
???? N/A 2018-10-09 03:36:00
???? N/A 2018-10-09 01:42:00
???? N/A 2018-10-09 00:20:00
???? N/A 2018-10-08 22:27:00
???? N/A 2018-10-08 16:37:00
???? N/A 2018-10-08 10:40:00
???? N/A 2018-10-06 20:11:00
???? N/A 2018-10-06 19:59:00
???? N/A 2018-10-06 15:11:00
Time Lat Lon Altitude Heading Speed Vertical Rate
2018-09-25 12:20:15 GMT 42.362686 -71.024345 0 272 2 0
2018-09-25 12:19:58 GMT 42.362652 -71.023865 0 275 8 0
2018-09-25 12:19:37 GMT 42.362015 -71.023163 0 348 14 0
2018-09-25 12:19:31 GMT 42.361610 -71.022987 0 334 15 0
2018-09-25 12:19:24 GMT 42.361221 -71.022636 0 315 16 0
2018-09-25 12:19:14 GMT 42.360813 -71.021889 0 300 18 0
2018-09-25 12:19:03 GMT 42.360260 -71.020599 0 300 21 0
2018-09-25 12:18:51 GMT 42.359665 -71.019279 0 300 20 0
2018-09-25 12:18:42 GMT 42.359314 -71.018417 0 295 18 0
2018-09-25 12:18:09 GMT 42.359417 -71.016197 0 199 10 0
2018-09-25 12:17:54 GMT 42.359989 -71.015945 0 199 9 0
2018-09-25 12:17:48 GMT 42.360210 -71.015831 0 199 9 0
2018-09-25 12:17:41 GMT 42.360512 -71.015686 0 199 8 0
2018-09-25 12:17:23 GMT 42.361000 -71.015450 0 199 5 0
2018-09-25 12:17:20 GMT 42.361080 -71.015404 0 199 3 0
2018-09-25 12:17:08 GMT 42.361153 -71.015373 0 199 0 0
2018-09-25 12:16:58 GMT 42.361176 -71.015358 0 199 0 0
2018-09-25 12:16:43 GMT 42.361244 -71.015335 0 199 0 0
2018-09-25 12:16:36 GMT 42.361279 -71.015305 0 199 3 0
2018-09-25 12:16:26 GMT 42.361462 -71.015221 0 202 6 0
2018-09-25 12:16:12 GMT 42.361805 -71.014832 0 258 9 0
2018-09-25 12:16:05 GMT 42.361816 -71.014488 0 270 8 0
2018-09-25 12:15:54 GMT 42.361897 -71.014091 0 216 5 0
2018-09-25 12:15:45 GMT 42.362072 -71.013947 0 199 4 0
2018-09-25 12:15:33 GMT 42.362194 -71.013893 0 199 2 0
2018-09-25 12:15:24 GMT 42.362244 -71.013870 0 199 0 0
2018-09-25 12:15:13 GMT 42.362263 -71.013863 0 199 3 0
2018-09-25 12:15:03 GMT 42.362537 -71.013725 0 199 11 0
2018-09-25 12:14:41 GMT 42.363876 -71.013084 0 199 20 0
2018-09-25 12:14:30 GMT 42.364929 -71.012566 0 199 23 0
2018-09-25 12:14:20 GMT 42.365875 -71.012115 0 199 23 0
2018-09-25 12:14:09 GMT 42.366955 -71.011581 0 199 20 0
2018-09-25 12:13:57 GMT 42.367924 -71.011536 0 146 17 0
2018-09-25 12:13:48 GMT 42.368462 -71.012131 0 154 16 0
2018-09-25 12:12:27 GMT 42.372288 -71.009506 0 205 18 0
2018-09-25 12:12:11 GMT 42.372997 -71.008438 0 298 15 0
2018-09-25 12:12:00 GMT 42.372459 -71.007622 0 315 17 0
2018-09-25 12:10:50 GMT 42.370262 -71.005074 0 345 25 0
2018-09-25 12:10:03 GMT 42.363235 -71.005951 -525 20 51 -64
2018-09-25 12:09:45 GMT 42.354675 -71.010071 -500 19 128 -384
2018-09-25 12:09:31 GMT 42.346710 -71.013962 -375 18 129 -768
2018-09-25 12:09:23 GMT 42.342381 -71.015945 -250 19 130 -704
2018-09-25 12:09:13 GMT 42.336548 -71.018745 -150 19 129 -704
2018-09-25 12:09:08 GMT 42.333160 -71.020432 -75 19 129 -768
2018-09-25 12:09:03 GMT 42.330322 -71.021820 0 19 129 -768
2018-09-25 12:08:51 GMT 42.320709 -71.026489 275 19 130 -768
2018-09-25 12:08:46 GMT 42.320709 -71.026489 175 19 129 -640
2018-09-25 12:08:38 GMT 42.316864 -71.028297 275 19 130 -768
2018-09-25 12:08:33 GMT 42.313660 -71.029854 325 19 130 -768
2018-09-25 12:08:30 GMT 42.311829 -71.030731 400 20 130 -704
2018-09-25 12:08:26 GMT 42.307297 -71.032974 450 19 129 -704
2018-09-25 12:08:19 GMT 42.305603 -71.033768 500 19 130 -640
2018-09-25 12:08:11 GMT 42.301460 -71.035744 575 19 135 -768
2018-09-25 12:08:08 GMT 42.300064 -71.036385 600 19 131 -640
2018-09-25 12:08:01 GMT 42.294804 -71.039001 725 19 133 -832
2018-09-25 12:07:57 GMT 42.293289 -71.039719 750 19 135 -768
2018-09-25 12:07:48 GMT 42.287155 -71.042656 875 19 145 -704
2018-09-25 12:07:41 GMT 42.283539 -71.044403 950 19 152 -768
2018-09-25 12:07:36 GMT 42.279190 -71.046463 1,025 19 158 -896
2018-09-25 12:07:28 GMT 42.272457 -71.049667 1,175 19 169 -1024
2018-09-25 12:07:21 GMT 42.269302 -71.051208 1,250 19 174 -1024
2018-09-25 12:07:17 GMT 42.265800 -71.052864 1,325 19 175 -1024
2018-09-25 12:07:04 GMT 42.255791 -71.057587 1,550 19 186 -960
2018-09-25 12:06:53 GMT 42.246597 -71.062065 1,775 20 193 -960
2018-09-25 12:06:46 GMT 42.240059 -71.065445 1,825 21 192 -704
2018-09-25 12:06:43 GMT 42.229351 -71.071129 1,850 21 193 -256
2018-09-25 12:06:33 GMT 42.229351 -71.071129 2,000 18 197 -1024
2018-09-25 12:06:22 GMT 42.219543 -71.074486 2,100 7 206 -512
2018-09-25 12:06:14 GMT 42.212265 -71.074707 2,150 355 214 -448
2018-09-25 12:06:11 GMT 42.209335 -71.074303 2,325 352 218 -512
2018-09-25 12:06:04 GMT 42.202023 -71.071960 2,250 335 223 -1024
2018-09-25 12:06:00 GMT 42.199043 -71.069984 2,300 329 224 -1088
2018-09-25 12:05:53 GMT 42.193085 -71.063438 2,425 312 225 -512
2018-09-25 12:05:49 GMT 42.187637 -71.050896 2,475 236 221 -384
2018-09-25 12:05:43 GMT 42.187637 -71.050896 2,450 289 223 -192
2018-09-25 12:05:38 GMT 42.186356 -71.045586 2,450 287 222 128
2018-09-25 12:05:32 GMT 42.184525 -71.037102 2,450 284 222 64
2018-09-25 12:05:25 GMT 42.183426 -71.028419 2,450 279 221 64
2018-09-25 12:05:22 GMT 42.183681 -71.021568 2,450 263 221 -128
2018-09-25 12:05:17 GMT 42.184708 -71.015938 2,450 249 222 -128
2018-09-25 12:05:09 GMT 42.188107 -71.007446 2,475 236 221 -384
2018-09-25 12:05:05 GMT 42.191666 -71.002579 2,550 222 218 -896
2018-09-25 12:05:01 GMT 42.195461 -70.999146 2,650 208 214 -1344
2018-09-25 12:04:57 GMT 42.198074 -70.997398 2,750 204 214 -1344
2018-09-25 12:04:54 GMT 42.200592 -70.995903 2,750 204 214 -1344
2018-09-25 12:04:47 GMT 42.207378 -70.991928 2,950 204 215 -1344
2018-09-25 12:04:44 GMT 42.210571 -70.990097 2,950 204 215 -1344
2018-09-25 12:04:39 GMT 42.214455 -70.987839 3,100 204 216 -1408
2018-09-25 12:04:35 GMT 42.220459 -70.984352 3,250 204 217 -1408
2018-09-25 12:04:29 GMT 42.223892 -70.982414 3,350 204 217 -1408
2018-09-25 12:04:25 GMT 42.227234 -70.980545 3,450 203 217 -1280
2018-09-25 12:04:22 GMT 42.230576 -70.978607 3,450 203 217 -1280
2018-09-25 12:04:18 GMT 42.234146 -70.976662 3,575 203 219 -1280
2018-09-25 12:04:14 GMT 42.237305 -70.974861 3,650 203 219 -1280
2018-09-25 12:04:10 GMT 42.242432 -70.972130 3,775 203 220 -1408
2018-09-25 12:04:07 GMT 42.243919 -70.971298 3,800 203 220 -1408
2018-09-25 12:04:02 GMT 42.248856 -70.968613 3,925 203 220 -1536
2018-09-25 12:03:59 GMT 42.252254 -70.966698 4,025 203 219 -1536
2018-09-25 12:03:54 GMT 42.256165 -70.964500 4,125 203 220 -1536
2018-09-25 12:03:50 GMT 42.260864 -70.961845 4,325 203 219 -1536
2018-09-25 12:03:47 GMT 42.264084 -70.960068 4,350 203 219 -1536
2018-09-25 12:03:44 GMT 42.265961 -70.959068 4,400 203 219 -1536
2018-09-25 12:03:39 GMT 42.270813 -70.956383 4,525 202 218 -1472
2018-09-25 12:03:35 GMT 42.274567 -70.954323 4,625 202 218 -1472
2018-09-25 12:03:32 GMT 42.277763 -70.952644 4,700 202 218 -1472
2018-09-25 12:03:28 GMT 42.281250 -70.950706 4,800 202 218 -1408
2018-09-25 12:03:25 GMT 42.285004 -70.948708 4,900 202 218 -1408
2018-09-25 12:03:22 GMT 42.286331 -70.948044 4,900 202 218 -1344
2018-09-25 12:03:18 GMT 42.291092 -70.945465 5,025 202 219 -1280
2018-09-25 12:03:15 GMT 42.293381 -70.944275 5,125 202 219 -1216
2018-09-25 12:03:12 GMT 42.296944 -70.942360 5,150 202 221 -1088
2018-09-25 12:03:07 GMT 42.301552 -70.939995 5,200 202 221 -1024
2018-09-25 12:03:04 GMT 42.303463 -70.938972 5,325 202 225 -832
2018-09-25 12:03:01 GMT 42.305923 -70.937660 5,300 202 224 -832
2018-09-25 12:02:56 GMT 42.311981 -70.934441 5,350 202 226 -704
2018-09-25 12:02:52 GMT 42.315937 -70.932396 5,400 202 231 -512
2018-09-25 12:02:47 GMT 42.320408 -70.930099 5,425 202 236 -64
2018-09-25 12:02:43 GMT 42.323990 -70.928246 5,425 201 239 -64
2018-09-25 12:02:40 GMT 42.327164 -70.926613 5,425 201 242 -128
2018-09-25 12:02:34 GMT 42.335209 -70.922882 5,450 196 251 0
2018-09-25 12:02:31 GMT 42.338703 -70.921539 5,450 194 252 0
2018-09-25 12:02:28 GMT 42.340851 -70.920929 5,450 188 252 -64
2018-09-25 12:02:25 GMT 42.344334 -70.920326 5,450 183 252 0
2018-09-25 12:02:22 GMT 42.350853 -70.920647 5,450 152 254 -64
2018-09-25 12:02:13 GMT 42.358749 -70.923676 5,450 156 254 -64
2018-09-25 12:02:10 GMT 42.362350 -70.926010 5,450 152 254 -64
2018-09-25 12:02:04 GMT 42.367798 -70.929840 5,450 152 254 -64
2018-09-25 12:02:01 GMT 42.370514 -70.931732 5,450 152 254 0
2018-09-25 12:01:58 GMT 42.373615 -70.933990 5,450 152 254 0
2018-09-25 12:01:53 GMT 42.378799 -70.937599 5,450 152 254 64
2018-09-25 12:01:50 GMT 42.381775 -70.939720 5,450 152 254 64
2018-09-25 12:01:47 GMT 42.388824 -70.944778 5,450 152 254 0
2018-09-25 12:01:41 GMT 42.392166 -70.947151 5,450 152 254 -64
2018-09-25 12:01:38 GMT 42.394890 -70.949066 5,450 152 254 0
2018-09-25 12:01:35 GMT 42.397358 -70.950859 5,450 152 254 64
2018-09-25 12:01:32 GMT 42.401081 -70.953476 5,450 152 253 0
2018-09-25 12:01:28 GMT 42.405487 -70.956635 5,450 152 253 0
2018-09-25 12:01:25 GMT 42.408203 -70.958519 5,450 152 253 64
2018-09-25 12:01:19 GMT 42.415878 -70.964005 5,450 152 253 -64
2018-09-25 12:01:16 GMT 42.416817 -70.964653 5,450 152 253 -64
2018-09-25 12:01:13 GMT 42.421692 -70.968185 5,450 151 252 64
2018-09-25 12:01:09 GMT 42.424313 -70.970016 5,450 100 267 64
2018-09-25 12:01:06 GMT 42.427242 -70.972191 5,450 151 252 64
2018-09-25 12:01:03 GMT 42.430969 -70.974876 5,450 151 252 0
2018-09-25 12:00:59 GMT 42.437714 -70.979858 5,450 149 252 -64
2018-09-25 12:00:56 GMT 42.441330 -70.982727 5,450 149 252 -64
2018-09-25 12:00:53 GMT 42.445221 -70.986099 5,450 141 254 -192
2018-09-25 12:00:49 GMT 42.445221 -70.986099 5,450 144 253 -128
2018-09-25 12:00:46 GMT 42.448608 -70.989655 5,450 138 254 -192
2018-09-25 12:00:40 GMT 42.452847 -70.995117 5,450 134 255 128
2018-09-25 12:00:37 GMT 42.456245 -71.000549 5,450 125 257 64
2018-09-25 12:00:33 GMT 42.458714 -71.006042 5,450 99 268 -64
2018-09-25 12:00:29 GMT 42.460510 -71.011818 5,450 107 263 -64
2018-09-25 12:00:26 GMT 42.461197 -71.014938 5,450 102 265 -64
2018-09-25 12:00:20 GMT 42.462765 -71.025078 5,450 100 266 0
2018-09-25 12:00:17 GMT 42.463486 -71.030670 5,450 100 266 -64
2018-09-25 12:00:13 GMT 42.464172 -71.035851 5,450 99 268 -64
2018-09-25 12:00:10 GMT 42.464905 -71.041496 5,450 100 267 64
2018-09-25 12:00:06 GMT 42.465790 -71.048073 5,450 99 266 0
2018-09-25 12:00:03 GMT 42.466393 -71.052673 5,450 99 266 0
2018-09-25 11:59:58 GMT 42.467560 -71.061867 5,450 99 266 -64
2018-09-25 11:59:53 GMT 42.468750 -71.070808 5,450 99 267 64
2018-09-25 11:59:48 GMT 42.469482 -71.076675 5,450 99 267 0
2018-09-25 11:59:45 GMT 42.470398 -71.083649 5,450 99 267 64
2018-09-25 11:59:41 GMT 42.470959 -71.088310 5,450 99 267 64
2018-09-25 11:59:37 GMT 42.471794 -71.094894 5,450 99 267 0
2018-09-25 11:59:34 GMT 42.473145 -71.105499 5,450 99 267 0
2018-09-25 11:59:26 GMT 42.474216 -71.113991 5,450 99 267 -64
2018-09-25 11:59:23 GMT 42.474838 -71.118935 5,450 99 267 -64
2018-09-25 11:59:20 GMT 42.475426 -71.123314 5,450 99 267 -64
2018-09-25 11:59:16 GMT 42.476635 -71.133087 5,450 99 268 0
2018-09-25 11:59:12 GMT 42.477146 -71.137115 5,450 99 268 -64
2018-09-25 11:59:09 GMT 42.477661 -71.141197 5,450 99 268 -64
2018-09-25 11:59:06 GMT 42.478405 -71.147011 5,450 99 268 -64
2018-09-25 11:59:03 GMT 42.479195 -71.153145 5,450 99 268 0
2018-09-25 11:59:00 GMT 42.479645 -71.156639 5,450 99 267 64
2018-09-25 11:58:57 GMT 42.480423 -71.162750 5,450 99 267 0
2018-09-25 11:58:54 GMT 42.481056 -71.167709 5,450 99 267 64
2018-09-25 11:58:49 GMT 42.482128 -71.176270 5,450 99 267 0
2018-09-25 11:58:45 GMT 42.482849 -71.181854 5,450 99 267 -64
2018-09-25 11:58:41 GMT 42.483810 -71.189156 5,450 99 267 0
2018-09-25 11:58:38 GMT 42.484318 -71.193260 5,450 99 267 64
2018-09-25 11:58:35 GMT 42.484818 -71.197090 5,450 99 267 64
2018-09-25 11:58:32 GMT 42.485527 -71.202713 5,450 99 268 0
2018-09-25 11:58:28 GMT 42.486649 -71.211510 5,450 99 268 0
2018-09-25 11:58:23 GMT 42.487473 -71.218246 5,450 99 268 0
2018-09-25 11:58:19 GMT 42.488297 -71.224800 5,450 99 268 -64
2018-09-25 11:58:16 GMT 42.488846 -71.228859 5,450 99 268 -64
2018-09-25 11:58:13 GMT 42.489670 -71.235474 5,450 99 268 -64
2018-09-25 11:58:10 GMT 42.490231 -71.239822 5,450 99 268 0
2018-09-25 11:58:06 GMT 42.491043 -71.246086 5,450 99 267 64
2018-09-25 11:58:03 GMT 42.492050 -71.254013 5,450 99 267 64
2018-09-25 11:57:59 GMT 42.492462 -71.257324 5,450 99 268 -64
2018-09-25 11:57:56 GMT 42.493256 -71.263649 5,450 99 268 -64
2018-09-25 11:57:52 GMT 42.494247 -71.271240 5,450 99 268 0
2018-09-25 11:57:48 GMT 42.494930 -71.276932 5,450 99 268 0
2018-09-25 11:57:45 GMT 42.495483 -71.281105 5,450 99 268 0
2018-09-25 11:57:42 GMT 42.496170 -71.286537 5,450 99 268 0
2018-09-25 11:57:38 GMT 42.497131 -71.294464 5,450 99 268 -64
2018-09-25 11:57:35 GMT 42.497677 -71.298653 5,450 99 268 0
2018-09-25 11:57:32 GMT 42.498375 -71.304077 5,450 99 267 64
2018-09-25 11:57:28 GMT 42.499027 -71.309380 5,450 99 267 0
2018-09-25 11:57:24 GMT 42.499866 -71.316025 5,450 99 267 0
2018-09-25 11:57:21 GMT 42.500519 -71.320930 5,450 99 267 -64
2018-09-25 11:57:18 GMT 42.501167 -71.326370 5,450 99 267 -64
2018-09-25 11:57:13 GMT 42.502167 -71.334038 5,450 99 267 -64
2018-09-25 11:57:10 GMT 42.502762 -71.338783 5,450 99 267 -64
2018-09-25 11:57:05 GMT 42.503952 -71.348587 5,475 99 267 -448
2018-09-25 11:57:00 GMT 42.505051 -71.357323 5,550 99 267 -960
2018-09-25 11:56:55 GMT 42.505825 -71.363609 5,600 99 268 -1024
2018-09-25 11:56:52 GMT 42.506477 -71.368721 5,650 99 269 -1024
2018-09-25 11:56:48 GMT 42.507313 -71.375557 5,725 99 269 -960
2018-09-25 11:56:45 GMT 42.507828 -71.379578 5,750 99 270 -896
2018-09-25 11:56:42 GMT 42.508663 -71.386223 5,825 99 270 -832
2018-09-25 11:56:37 GMT 42.510201 -71.398804 5,900 99 271 -896
2018-09-25 11:56:34 GMT 42.510956 -71.404640 5,950 99 271 -960
2018-09-25 11:56:30 GMT 42.510956 -71.404640 5,975 99 271 -1024
2018-09-25 11:56:27 GMT 42.511826 -71.411385 6,050 99 271 -1024
2018-09-25 11:56:22 GMT 42.512760 -71.418350 6,150 100 270 -1088
2018-09-25 11:56:19 GMT 42.513554 -71.424416 6,150 100 270 -1088
2018-09-25 11:56:14 GMT 42.514622 -71.432274 6,275 100 269 -1088
2018-09-25 11:56:11 GMT 42.515182 -71.436363 6,300 100 269 -1024
2018-09-25 11:56:08 GMT 42.515900 -71.441154 6,325 100 269 -1024
2018-09-25 11:56:03 GMT 42.518021 -71.456291 6,450 100 270 -192
2018-09-25 11:55:59 GMT 42.518021 -71.456291 6,450 100 271 -64
2018-09-25 11:55:56 GMT 42.518951 -71.462936 6,450 100 271 -64
2018-09-25 11:55:52 GMT 42.519791 -71.468811 6,450 100 271 -64
2018-09-25 11:55:48 GMT 42.520889 -71.476616 6,450 100 270 64
2018-09-25 11:55:42 GMT 42.522259 -71.486252 6,450 100 269 -64
2018-09-25 11:55:37 GMT 42.523270 -71.493721 6,450 100 269 -64
2018-09-25 11:55:31 GMT 42.524689 -71.503708 6,450 100 269 0
2018-09-25 11:55:28 GMT 42.525517 -71.509499 6,450 100 270 0
2018-09-25 11:55:21 GMT 42.528030 -71.527382 6,450 100 272 0
2018-09-25 11:55:16 GMT 42.528030 -71.527382 6,450 100 274 64
2018-09-25 11:55:10 GMT 42.529541 -71.538475 6,450 100 274 64
2018-09-25 11:55:06 GMT 42.530357 -71.544373 6,450 100 276 64
2018-09-25 11:54:58 GMT 42.532562 -71.560448 6,450 100 279 -256
2018-09-25 11:54:49 GMT 42.534576 -71.574867 6,575 100 279 -1408
2018-09-25 11:54:45 GMT 42.535477 -71.581421 6,625 100 279 -1600
2018-09-25 11:54:39 GMT 42.537155 -71.593178 6,900 100 280 -1920
2018-09-25 11:54:35 GMT 42.537964 -71.599022 7,025 100 281 -2048
2018-09-25 11:54:28 GMT 42.539566 -71.610069 7,250 100 280 -2176
2018-09-25 11:54:24 GMT 42.540646 -71.617828 7,400 100 280 -2048
2018-09-25 11:54:18 GMT 42.542038 -71.627991 7,600 100 281 -1792
2018-09-25 11:54:14 GMT 42.543137 -71.636353 7,725 100 282 -1600
2018-09-25 11:54:06 GMT 42.544975 -71.649956 7,925 100 284 -1600
2018-09-25 11:54:03 GMT 42.545628 -71.654877 8,000 100 285 -1664
2018-09-25 11:53:55 GMT 42.547440 -71.667938 8,200 100 288 -1664
2018-09-25 11:53:51 GMT 42.548325 -71.673973 8,300 101 289 -1728
2018-09-25 11:53:47 GMT 42.549728 -71.683540 8,450 101 290 -1792
2018-09-25 11:53:44 GMT 42.550278 -71.687164 8,525 101 290 -1792
2018-09-25 11:53:41 GMT 42.551121 -71.693199 8,625 100 291 -1664
2018-09-25 11:53:38 GMT 42.551971 -71.699150 8,800 100 293 -1408
2018-09-25 11:53:34 GMT 42.553070 -71.707138 8,825 100 293 -1472
2018-09-25 11:53:30 GMT 42.553665 -71.711510 8,900 100 293 -1472
2018-09-25 11:53:24 GMT 42.555405 -71.723808 9,450 101 295 -1536
2018-09-25 11:53:20 GMT 42.556473 -71.731400 9,150 100 295 -1536
2018-09-25 11:53:16 GMT 42.557964 -71.741554 9,375 101 298 -896
2018-09-25 11:53:13 GMT 42.558147 -71.743019 9,375 101 298 -896
2018-09-25 11:53:10 GMT 42.559219 -71.750305 9,375 101 297 -1024
2018-09-25 11:53:03 GMT 42.560944 -71.762321 9,450 101 306 0
2018-09-25 11:52:58 GMT 42.562107 -71.770294 9,450 101 305 0
2018-09-25 11:52:52 GMT 42.563873 -71.782433 9,450 101 310 -64
2018-09-25 11:52:48 GMT 42.564880 -71.789726 9,450 101 311 0
2018-09-25 11:52:43 GMT 42.566387 -71.800064 9,450 101 310 64
2018-09-25 11:52:40 GMT 42.567123 -71.805016 9,450 101 310 64
2018-09-25 11:52:37 GMT 42.567924 -71.810730 9,450 101 310 0
2018-09-25 11:52:32 GMT 42.569462 -71.821457 9,450 100 311 0
2018-09-25 11:52:27 GMT 42.570671 -71.829956 9,450 100 311 0
2018-09-25 11:52:22 GMT 42.572346 -71.841454 9,450 100 311 0
2018-09-25 11:52:16 GMT 42.573807 -71.851768 9,450 100 311 0
2018-09-25 11:52:13 GMT 42.574860 -71.859077 9,450 100 311 64
2018-09-25 11:52:06 GMT 42.576721 -71.871986 9,450 100 310 0
2018-09-25 11:52:01 GMT 42.577793 -71.879715 9,450 100 310 0
2018-09-25 11:51:57 GMT 42.579300 -71.890038 9,450 100 310 64
2018-09-25 11:51:52 GMT 42.580582 -71.899277 9,450 100 311 -64
2018-09-25 11:51:43 GMT 42.582687 -71.913818 9,450 100 312 64
2018-09-25 11:51:40 GMT 42.583519 -71.919571 9,450 100 312 64
2018-09-25 11:51:33 GMT 42.585434 -71.933044 9,450 100 312 64
2018-09-25 11:51:30 GMT 42.586452 -71.940262 9,450 100 312 0
2018-09-25 11:51:27 GMT 42.587242 -71.945755 9,450 100 312 64
2018-09-25 11:51:23 GMT 42.588314 -71.953484 9,450 100 313 -64
2018-09-25 11:51:19 GMT 42.591110 -71.973122 9,450 100 313 -64
2018-09-25 11:51:13 GMT 42.591110 -71.973122 9,450 100 313 0
2018-09-25 11:51:07 GMT 42.592850 -71.985420 9,450 100 313 -64
2018-09-25 11:51:03 GMT 42.594738 -71.998901 9,450 100 313 64
2018-09-25 11:51:00 GMT 42.594738 -71.998901 9,450 100 313 -128
2018-09-25 11:50:57 GMT 42.595299 -72.002731 9,450 101 313 -64
2018-09-25 11:50:52 GMT 42.597069 -72.015060 9,450 100 314 -64
2018-09-25 11:50:48 GMT 42.598206 -72.023308 9,450 100 315 64
2018-09-25 11:50:45 GMT 42.598984 -72.028740 9,450 100 315 64
2018-09-25 11:50:40 GMT 42.599945 -72.035667 9,450 100 314 -64
2018-09-25 11:50:37 GMT 42.600723 -72.041161 9,450 100 314 -128
2018-09-25 11:50:34 GMT 42.601768 -72.048470 9,450 100 313 64
2018-09-25 11:50:31 GMT 42.602840 -72.056129 9,450 100 313 0
2018-09-25 11:50:28 GMT 42.603653 -72.062012 9,450 100 313 0
2018-09-25 11:50:24 GMT 42.604561 -72.068527 9,450 100 313 0
2018-09-25 11:50:20 GMT 42.605530 -72.075180 9,450 100 313 -64
2018-09-25 11:50:17 GMT 42.606720 -72.083672 9,450 100 313 0
2018-09-25 11:50:12 GMT 42.607819 -72.091408 9,450 100 313 64
2018-09-25 11:50:07 GMT 42.609238 -72.101402 9,450 100 313 -64
2018-09-25 11:50:03 GMT 42.610519 -72.110573 9,450 100 313 0
2018-09-25 11:49:58 GMT 42.611313 -72.116432 9,450 100 313 0
2018-09-25 11:49:55 GMT 42.612259 -72.122993 9,450 100 313 0
2018-09-25 11:49:51 GMT 42.613594 -72.132523 9,450 100 313 64
2018-09-25 11:49:48 GMT 42.614151 -72.136551 9,450 100 313 0
2018-09-25 11:49:45 GMT 42.614895 -72.141975 9,450 100 313 64
2018-09-25 11:49:40 GMT 42.616432 -72.152649 9,450 100 313 -64
2018-09-25 11:49:37 GMT 42.617249 -72.158577 9,450 100 313 0
2018-09-25 11:49:30 GMT 42.619400 -72.174057 9,450 100 313 64
2018-09-25 11:49:27 GMT 42.620201 -72.179726 9,450 100 313 64
2018-09-25 11:49:24 GMT 42.620853 -72.184456 9,450 100 312 -64
2018-09-25 11:49:18 GMT 42.622238 -72.194099 9,450 100 312 -64
2018-09-25 11:49:14 GMT 42.623695 -72.204514 9,450 100 312 0
2018-09-25 11:49:08 GMT 42.625763 -72.219376 9,450 100 312 64
2018-09-25 11:49:05 GMT 42.626541 -72.224930 9,450 100 312 64
2018-09-25 11:48:57 GMT 42.627884 -72.234535 9,450 100 313 -128
2018-09-25 11:48:54 GMT 42.629047 -72.243027 9,450 100 313 0
2018-09-25 11:48:48 GMT 42.630478 -72.253525 9,450 100 314 128
2018-09-25 11:48:45 GMT 42.631210 -72.258888 9,450 100 314 128
2018-09-25 11:48:42 GMT 42.631897 -72.263573 9,450 100 314 0
2018-09-25 11:48:37 GMT 42.634632 -72.283333 9,450 100 314 0
2018-09-25 11:48:33 GMT 42.634632 -72.283333 9,450 100 314 0
2018-09-25 11:48:27 GMT 42.635937 -72.292595 9,450 100 314 0
2018-09-25 11:48:24 GMT 42.636868 -72.299492 9,450 100 312 -64
2018-09-25 11:48:21 GMT 42.637661 -72.304985 9,450 100 313 64
2018-09-25 11:48:17 GMT 42.638992 -72.314445 9,450 100 312 64
2018-09-25 11:48:13 GMT 42.639801 -72.320381 9,450 100 311 -64
2018-09-25 11:48:10 GMT 42.640503 -72.325371 9,450 100 311 -64
2018-09-25 11:48:04 GMT 42.642517 -72.339912 9,450 100 310 128
2018-09-25 11:48:01 GMT 42.643158 -72.344536 9,450 100 311 -64
2018-09-25 11:47:56 GMT 42.644459 -72.354172 9,450 100 312 -128
2018-09-25 11:47:51 GMT 42.645676 -72.363014 9,450 100 317 -64
2018-09-25 11:47:45 GMT 42.647324 -72.374687 9,450 100 316 0
2018-09-25 11:47:42 GMT 42.648228 -72.381317 9,450 100 317 -256
2018-09-25 11:47:39 GMT 42.648785 -72.385208 9,450 100 318 -64
2018-09-25 11:47:35 GMT 42.650116 -72.395035 9,450 100 319 64
2018-09-25 11:47:30 GMT 42.651299 -72.403290 9,450 100 320 -64
2018-09-25 11:47:24 GMT 42.653000 -72.415573 9,450 100 320 128
2018-09-25 11:47:20 GMT 42.654140 -72.423859 9,450 100 320 -64
2018-09-25 11:47:12 GMT 42.657166 -72.445953 9,450 100 319 -64
2018-09-25 11:47:03 GMT 42.658630 -72.456581 9,450 100 320 -64
2018-09-25 11:46:58 GMT 42.659912 -72.466072 9,450 100 320 64
2018-09-25 11:46:53 GMT 42.662109 -72.481865 9,450 100 320 64
2018-09-25 11:46:43 GMT 42.664261 -72.497658 9,450 100 319 64
2018-09-25 11:46:40 GMT 42.664848 -72.501976 9,450 100 320 0
2018-09-25 11:46:36 GMT 42.665825 -72.509125 9,450 100 319 0
2018-09-25 11:46:32 GMT 42.667191 -72.518944 9,450 100 319 64
2018-09-25 11:46:27 GMT 42.668526 -72.528671 9,450 100 319 0
2018-09-25 11:46:22 GMT 42.669922 -72.538895 9,450 100 319 0
2018-09-25 11:46:19 GMT 42.670574 -72.543808 9,450 100 319 0
2018-09-25 11:46:14 GMT 42.672295 -72.556396 9,450 100 318 0
2018-09-25 11:46:09 GMT 42.673325 -72.563820 9,450 100 317 0
2018-09-25 11:46:06 GMT 42.674057 -72.569321 9,450 100 317 64
2018-09-25 11:45:59 GMT 42.676025 -72.583427 9,450 100 317 0
2018-09-25 11:45:56 GMT 42.676849 -72.589668 9,450 100 317 0
2018-09-25 11:45:52 GMT 42.677811 -72.596718 9,450 100 317 0
2018-09-25 11:45:48 GMT 42.678909 -72.604584 9,450 100 317 64
2018-09-25 11:45:44 GMT 42.680023 -72.612793 9,450 100 318 0
2018-09-25 11:45:41 GMT 42.680832 -72.618690 9,450 100 318 -64
2018-09-25 11:45:37 GMT 42.682022 -72.627182 9,450 100 318 0
2018-09-25 11:45:32 GMT 42.683048 -72.634766 9,450 100 319 0
2018-09-25 11:45:29 GMT 42.684025 -72.641853 9,450 100 319 64
2018-09-25 11:45:26 GMT 42.684677 -72.646584 9,450 100 319 0
2018-09-25 11:45:20 GMT 42.686401 -72.659164 9,450 100 319 64
2018-09-25 11:45:17 GMT 42.687286 -72.665298 9,450 100 320 -64
2018-09-25 11:45:14 GMT 42.688076 -72.671043 9,450 100 320 0
2018-09-25 11:45:10 GMT 42.689194 -72.678970 9,450 100 320 -64
2018-09-25 11:45:07 GMT 42.690311 -72.686821 9,450 100 320 0
2018-09-25 11:44:58 GMT 42.692596 -72.703087 9,450 100 321 0
2018-09-25 11:44:55 GMT 42.694839 -72.720566 9,450 99 321 0
2018-09-25 11:44:50 GMT 42.694839 -72.720566 9,450 99 321 64
2018-09-25 11:44:45 GMT 42.696487 -72.734108 9,450 99 321 -64
2018-09-25 11:44:37 GMT 42.697861 -72.745850 9,450 99 320 -64
2018-09-25 11:44:34 GMT 42.698318 -72.749611 9,450 99 320 -64
2018-09-25 11:44:29 GMT 42.699646 -72.761078 9,450 98 319 0
2018-09-25 11:44:25 GMT 42.700607 -72.769005 9,450 98 319 0
2018-09-25 11:44:18 GMT 42.703079 -72.790413 9,450 99 318 64
2018-09-25 11:44:14 GMT 42.703079 -72.790413 9,450 99 318 64
2018-09-25 11:44:04 GMT 42.705322 -72.809334 9,450 98 316 0
2018-09-25 11:43:59 GMT 42.706512 -72.819748 9,450 99 316 0
2018-09-25 11:43:55 GMT 42.708893 -72.839920 9,475 99 317 -192
2018-09-25 11:43:43 GMT 42.710140 -72.850662 9,600 99 317 -1216
2018-09-25 11:43:37 GMT 42.711445 -72.861710 9,650 98 317 -64
2018-09-25 11:43:33 GMT 42.712421 -72.870331 9,650 98 315 64
2018-09-25 11:43:23 GMT 42.714844 -72.891167 9,650 99 317 -64
2018-09-25 11:43:08 GMT 42.719315 -72.929420 9,650 98 317 -64
2018-09-25 11:43:02 GMT 42.722851 -72.960205 9,650 98 318 -64
2018-09-25 11:42:53 GMT 42.722851 -72.960205 9,650 98 318 64
2018-09-25 11:42:45 GMT 42.723503 -72.965759 9,650 99 318 64
2018-09-25 11:42:36 GMT 42.725643 -72.984604 9,650 98 317 0
2018-09-25 11:42:31 GMT 42.726700 -72.993729 9,650 98 314 -64
2018-09-25 11:42:22 GMT 42.729675 -73.020317 9,650 98 314 64
2018-09-25 11:42:18 GMT 42.729767 -73.021126 9,650 98 314 -64
2018-09-25 11:42:14 GMT 42.730453 -73.027374 9,650 98 314 64
2018-09-25 11:42:03 GMT 42.732674 -73.047394 9,650 98 318 0
2018-09-25 11:41:53 GMT 42.735001 -73.067963 9,650 99 322 -64
2018-09-25 11:41:43 GMT 42.737411 -73.088425 9,650 98 323 0
2018-09-25 11:41:32 GMT 42.739330 -73.109032 9,650 95 325 128
2018-09-25 11:41:20 GMT 42.740959 -73.145821 9,650 92 326 -64
2018-09-25 11:41:11 GMT 42.741005 -73.153229 9,650 90 327 -64
2018-09-25 11:41:01 GMT 42.741238 -73.172966 9,650 90 327 64
2018-09-25 11:40:56 GMT 42.741394 -73.186485 9,650 90 327 0
2018-09-25 11:40:52 GMT 42.741486 -73.194725 9,650 90 327 64
2018-09-25 11:40:49 GMT 42.741611 -73.207458 9,650 90 327 64
2018-09-25 11:40:41 GMT 42.741703 -73.214874 9,650 90 327 64
2018-09-25 11:40:34 GMT 42.741985 -73.238632 9,650 90 327 64
2018-09-25 11:40:29 GMT 42.741989 -73.240730 9,650 90 326 64
2018-09-25 11:40:20 GMT 42.742168 -73.259201 9,650 90 326 -128
2018-09-25 11:40:17 GMT 42.742214 -73.263222 9,650 90 325 -64
2018-09-25 11:40:08 GMT 42.742451 -73.283531 9,675 90 325 -64
2018-09-25 11:40:00 GMT 42.742634 -73.300018 9,650 90 324 64
2018-09-25 11:39:53 GMT 42.742767 -73.311577 9,650 90 323 64
2018-09-25 11:39:49 GMT 42.742867 -73.321091 9,650 90 321 0
2018-09-25 11:39:46 GMT 42.742905 -73.327187 9,650 90 321 0
2018-09-25 11:39:39 GMT 42.743088 -73.342476 9,650 90 320 64
2018-09-25 11:39:36 GMT 42.743149 -73.349327 9,650 90 321 0
2018-09-25 11:39:28 GMT 42.743286 -73.362869 9,650 90 322 -64
2018-09-25 11:39:24 GMT 42.743362 -73.371506 9,650 90 324 0
2018-09-25 11:39:17 GMT 42.743473 -73.385796 9,675 90 327 64
2018-09-25 11:39:13 GMT 42.743546 -73.395042 9,675 90 327 -64
2018-09-25 11:39:07 GMT 42.743637 -73.405899 9,650 90 328 0
2018-09-25 11:39:01 GMT 42.743752 -73.417862 9,650 90 329 -64
2018-09-25 11:38:57 GMT 42.743820 -73.428185 9,650 90 329 64
2018-09-25 11:38:45 GMT 42.744034 -73.450119 9,650 90 330 0
2018-09-25 11:38:41 GMT 42.744095 -73.460274 9,650 90 330 -64
2018-09-25 11:38:36 GMT 42.744171 -73.471710 9,650 90 330 64
2018-09-25 11:38:31 GMT 42.744370 -73.491104 9,650 90 328 -64
2018-09-25 11:38:24 GMT 42.744404 -73.493042 9,650 90 328 -64
2018-09-25 11:38:15 GMT 42.744591 -73.514633 9,650 90 328 -64
2018-09-25 11:38:06 GMT 42.744690 -73.533180 9,650 90 328 -64
2018-09-25 11:37:59 GMT 42.744919 -73.557022 9,675 90 327 -64
2018-09-25 11:37:54 GMT 42.744915 -73.558128 9,650 90 327 -128
2018-09-25 11:37:42 GMT 42.745102 -73.579872 9,650 90 329 64
2018-09-25 11:37:29 GMT 42.745380 -73.618362 9,650 90 327 -64
2018-09-25 11:37:22 GMT 42.745422 -73.622070 9,650 90 327 0
2018-09-25 11:37:12 GMT 42.745567 -73.644676 9,650 90 328 -64
2018-09-25 11:36:58 GMT 42.745800 -73.683327 9,650 90 326 64
2018-09-25 11:36:51 GMT 42.745850 -73.686646 9,650 90 326 64
2018-09-25 11:36:41 GMT 42.745941 -73.707916 9,650 90 326 64
2018-09-25 11:36:30 GMT 42.745972 -73.729622 9,650 90 326 64
2018-09-25 11:36:24 GMT 42.746017 -73.741920 9,650 90 327 -64
2018-09-25 11:36:20 GMT 42.745987 -73.751350 9,650 90 327 64
2018-09-25 11:36:09 GMT 42.745941 -73.772682 9,650 89 326 0
2018-09-25 11:35:57 GMT 42.746548 -73.809410 9,650 93 323 0
2018-09-25 11:35:51 GMT 42.746613 -73.810524 9,650 93 323 0
2018-09-25 11:35:47 GMT 42.747116 -73.823631 9,650 93 323 64
2018-09-25 11:35:39 GMT 42.747574 -73.835800 9,650 93 322 0
2018-09-25 11:35:35 GMT 42.747894 -73.843040 9,650 93 322 -64
2018-09-25 11:35:27 GMT 42.748489 -73.858398 9,650 93 322 64
2018-09-25 11:35:24 GMT 42.748718 -73.864700 9,650 93 324 -64
2018-09-25 11:35:18 GMT 42.749176 -73.876251 9,650 93 324 -64
2018-09-25 11:35:14 GMT 42.749523 -73.885483 9,650 92 326 -64
2018-09-25 11:35:09 GMT 42.749908 -73.895920 9,650 92 327 64
2018-09-25 11:35:03 GMT 42.750362 -73.907837 9,650 92 328 128
2018-09-25 11:34:58 GMT 42.750782 -73.917549 9,650 92 328 -128
2018-09-25 11:34:52 GMT 42.751236 -73.929688 9,650 92 328 128
2018-09-25 11:34:48 GMT 42.751572 -73.939140 9,650 92 327 64
2018-09-25 11:34:42 GMT 42.752041 -73.950569 9,650 92 326 -64
2018-09-25 11:34:38 GMT 42.752380 -73.959839 9,675 92 325 -64
2018-09-25 11:34:30 GMT 42.753017 -73.975929 9,650 93 324 -128
2018-09-25 11:34:27 GMT 42.753204 -73.980850 9,650 93 324 128
2018-09-25 11:34:21 GMT 42.753670 -73.993111 9,650 92 325 0
2018-09-25 11:34:17 GMT 42.754074 -74.004097 9,650 92 325 -192
2018-09-25 11:34:11 GMT 42.754440 -74.014702 9,650 92 325 128
2018-09-25 11:34:06 GMT 42.754807 -74.024567 9,650 92 325 -64
2018-09-25 11:34:00 GMT 42.755219 -74.035988 9,650 92 325 192
2018-09-25 11:33:56 GMT 42.755539 -74.044167 9,650 92 325 0
2018-09-25 11:33:50 GMT 42.756042 -74.057495 9,675 92 326 -256
2018-09-25 11:33:43 GMT 42.756500 -74.069511 9,675 92 327 320
2018-09-25 11:33:39 GMT 42.756882 -74.078896 9,650 92 328 -64
2018-09-25 11:33:35 GMT 42.757160 -74.086433 9,650 92 328 -64
2018-09-25 11:33:29 GMT 42.757717 -74.101250 9,650 92 327 64
2018-09-25 11:33:25 GMT 42.757950 -74.107765 9,650 92 326 64
2018-09-25 11:33:18 GMT 42.758514 -74.122818 9,650 92 325 -64
2018-09-25 11:33:15 GMT 42.758743 -74.129501 9,650 92 324 -64
2018-09-25 11:33:06 GMT 42.759300 -74.144554 9,650 92 324 0
2018-09-25 11:33:03 GMT 42.759533 -74.151009 9,650 92 323 0
2018-09-25 11:32:53 GMT 42.760326 -74.172852 9,650 92 323 -64
2018-09-25 11:32:46 GMT 42.760792 -74.186653 9,650 92 323 -64
2018-09-25 11:32:43 GMT 42.761024 -74.193230 9,675 92 323 0
2018-09-25 11:32:36 GMT 42.761768 -74.213478 9,650 92 323 64
2018-09-25 11:32:23 GMT 42.762512 -74.234558 9,675 92 326 0
2018-09-25 11:32:12 GMT 42.763321 -74.256157 9,650 92 325 256
2018-09-25 11:32:02 GMT 42.763954 -74.276329 9,650 92 323 128
2018-09-25 11:31:54 GMT 42.764606 -74.294151 9,650 92 322 -192
2018-09-25 11:31:51 GMT 42.764793 -74.298943 9,675 92 323 192
2018-09-25 11:31:43 GMT 42.765633 -74.322510 9,650 92 323 256
2018-09-25 11:31:30 GMT 42.766285 -74.340332 9,650 92 324 -576
2018-09-25 11:31:22 GMT 42.766937 -74.358978 9,675 92 325 448
2018-09-25 11:31:19 GMT 42.767075 -74.363136 9,675 92 325 64
2018-09-25 11:31:08 GMT 42.767868 -74.386131 9,650 92 326 -64
2018-09-25 11:31:01 GMT 42.768402 -74.401352 9,650 92 326 128
2018-09-25 11:30:51 GMT 42.769123 -74.422981 9,675 92 325 -64
2018-09-25 11:30:38 GMT 42.769958 -74.448601 9,650 92 323 64
2018-09-25 11:30:27 GMT 42.770691 -74.469704 9,650 92 322 -64
2018-09-25 11:30:19 GMT 42.771263 -74.486343 9,650 92 324 -64
2018-09-25 11:30:09 GMT 42.771927 -74.507965 9,650 92 325 -64
2018-09-25 11:29:57 GMT 42.772663 -74.529465 9,650 92 325 0
2018-09-25 11:29:48 GMT 42.773312 -74.549965 9,650 92 323 0
2018-09-25 11:29:38 GMT 42.774059 -74.570854 9,650 92 320 384
2018-09-25 11:29:26 GMT 42.774849 -74.595184 9,675 92 323 64
2018-09-25 11:29:19 GMT 42.775360 -74.611282 9,675 92 320 128
2018-09-25 11:29:16 GMT 42.775452 -74.614212 9,650 92 320 64
2018-09-25 11:29:05 GMT 42.776108 -74.635429 9,650 92 318 0
2018-09-25 11:28:56 GMT 42.776733 -74.655029 9,675 92 318 -128
2018-09-25 11:28:45 GMT 42.777466 -74.677444 9,650 92 318 -128
2018-09-25 11:28:35 GMT 42.778107 -74.697166 9,650 92 315 192
2018-09-25 11:28:24 GMT 42.778854 -74.718849 9,650 92 311 -128
2018-09-25 11:28:11 GMT 42.779644 -74.743889 9,650 92 315 -64
We lost coverage of the aircraft here for a total of 8 minutes
2018-09-25 11:20:18 GMT 42.806122 -75.725136 9,650 91 352 64
2018-09-25 11:19:47 GMT 42.807724 -75.795113 9,650 91 351 -64
2018-09-25 11:19:31 GMT 42.808456 -75.828636 9,650 91 350 -64
2018-09-25 11:19:27 GMT 42.808693 -75.837921 9,650 91 350 0
2018-09-25 11:19:19 GMT 42.809067 -75.855553 9,650 91 355 -320
2018-09-25 11:19:14 GMT 42.809345 -75.866089 9,650 91 348 64
2018-09-25 11:19:05 GMT 42.809715 -75.885384 9,650 91 348 64
2018-09-25 11:18:56 GMT 42.810196 -75.909584 9,675 91 358 -448
2018-09-25 11:18:46 GMT 42.810608 -75.930534 9,875 91 368 -1664
2018-09-25 11:18:35 GMT 42.811111 -75.955833 10,275 91 372 -2752
2018-09-25 11:18:28 GMT 42.811478 -75.971611 10,650 91 372 -3520
2018-09-25 11:18:24 GMT 42.811615 -75.979210 10,825 91 373 -3456
2018-09-25 11:18:14 GMT 42.812119 -76.002586 11,350 91 378 -2944
2018-09-25 11:18:05 GMT 42.812576 -76.026733 11,850 91 385 -2816
2018-09-25 11:17:56 GMT 42.812988 -76.047234 12,275 91 390 -3392
2018-09-25 11:17:53 GMT 42.813126 -76.054070 12,450 91 391 -3648
2018-09-25 11:17:48 GMT 42.813396 -76.067375 12,750 91 392 -3520
2018-09-25 11:17:41 GMT 42.813721 -76.084473 13,175 91 394 -3584
2018-09-25 11:17:37 GMT 42.813908 -76.092880 13,375 91 394 -3648
2018-09-25 11:17:33 GMT 42.814095 -76.103996 13,650 91 396 -3584
2018-09-25 11:17:28 GMT 42.814407 -76.119415 14,025 91 397 -3840
2018-09-25 11:17:14 GMT 42.815002 -76.150200 14,800 91 401 -3392
2018-09-25 11:17:07 GMT 42.815369 -76.171280 15,275 91 401 -3392
2018-09-25 11:17:01 GMT 42.815643 -76.185333 15,600 91 403 -3456
2018-09-25 11:16:55 GMT 42.815872 -76.197784 17,850 91 416 -3648
2018-09-25 11:16:51 GMT 42.816139 -76.211372 16,200 91 407 -3456
2018-09-25 11:16:45 GMT 42.816422 -76.225250 16,500 91 409 -3200
2018-09-25 11:16:41 GMT 42.816608 -76.234917 16,950 91 413 -3520
2018-09-25 11:16:34 GMT 42.816887 -76.251595 17,075 91 413 -3776
2018-09-25 11:16:31 GMT 42.817074 -76.262184 17,350 91 414 -3904
2018-09-25 11:16:24 GMT 42.817337 -76.278137 17,725 91 416 -3648
2018-09-25 11:16:19 GMT 42.817631 -76.294624 17,975 91 417 -3584
2018-09-25 11:16:14 GMT 42.817863 -76.306198 18,350 91 421 -3328
2018-09-25 11:16:10 GMT 42.818142 -76.323135 18,675 91 423 -3136
2018-09-25 11:16:02 GMT 42.818420 -76.336998 18,950 91 425 -2944
2018-09-25 11:15:57 GMT 42.818619 -76.350449 19,075 91 427 -2688
2018-09-25 11:15:54 GMT 42.818802 -76.361176 19,325 91 431 -2240
2018-09-25 11:15:49 GMT 42.819122 -76.381935 19,575 91 437 -1792
2018-09-25 11:15:45 GMT 42.819260 -76.390495 19,675 91 444 -1728
2018-09-25 11:15:42 GMT 42.819260 -76.390495 19,675 91 442 -1728
2018-09-25 11:15:38 GMT 42.819447 -76.401344 19,775 91 446 -1920
2018-09-25 11:15:34 GMT 42.819633 -76.412590 19,925 91 449 -2432
2018-09-25 11:15:28 GMT 42.819992 -76.432266 20,275 91 453 -3072
2018-09-25 11:15:25 GMT 42.820129 -76.440254 20,425 91 455 -3200
2018-09-25 11:15:13 GMT 42.820633 -76.472443 21,000 91 461 -2944
2018-09-25 11:15:10 GMT 42.820797 -76.482567 21,175 91 463 -3264
2018-09-25 11:15:07 GMT 42.820934 -76.492966 21,375 91 463 -3200
2018-09-25 11:15:04 GMT 42.821121 -76.502052 21,525 91 464 -3328
2018-09-25 11:15:01 GMT 42.821274 -76.511024 21,700 91 464 -3392
2018-09-25 11:14:55 GMT 42.821503 -76.526230 22,025 91 464 -3776
2018-09-25 11:14:52 GMT 42.821636 -76.534752 22,200 91 463 -4032
2018-09-25 11:14:46 GMT 42.821915 -76.551773 22,625 91 461 -4224
2018-09-25 11:14:41 GMT 42.822235 -76.570107 23,100 91 457 -5184
2018-09-25 11:14:35 GMT 42.822426 -76.582359 23,725 91 452 -5504
2018-09-25 11:14:32 GMT 42.822647 -76.595406 23,900 91 449 -4800
2018-09-25 11:14:26 GMT 42.822891 -76.612900 24,325 91 447 -3840
2018-09-25 11:14:22 GMT 42.823013 -76.619995 24,575 91 445 -2816
2018-09-25 11:14:19 GMT 42.823196 -76.631363 24,650 91 445 -2496
2018-09-25 11:14:16 GMT 42.823242 -76.636726 24,725 91 445 -2240
2018-09-25 11:14:12 GMT 42.823448 -76.649780 25,050 91 446 -1920
2018-09-25 11:14:07 GMT 42.823654 -76.664894 25,075 91 446 -1920
2018-09-25 11:14:04 GMT 42.823746 -76.670517 25,200 91 447 -1664
2018-09-25 11:14:01 GMT 42.823883 -76.680611 25,900 91 453 -1536
2018-09-25 11:13:57 GMT 42.824146 -76.700264 25,400 91 448 -1600
2018-09-25 11:13:54 GMT 42.824146 -76.700264 25,525 91 450 -1856
2018-09-25 11:13:50 GMT 42.824341 -76.712166 25,550 91 449 -1792
2018-09-25 11:13:45 GMT 42.824474 -76.724007 25,675 91 450 -1856
2018-09-25 11:13:41 GMT 42.824661 -76.735252 25,800 91 450 -1792
2018-09-25 11:13:38 GMT 42.824753 -76.743782 25,975 90 456 -832
2018-09-25 11:13:35 GMT 42.824894 -76.755722 26,000 91 452 -1600
2018-09-25 11:13:31 GMT 42.825031 -76.767097 26,100 91 453 -1472
2018-09-25 11:13:25 GMT 42.825256 -76.781342 26,200 91 456 -960
2018-09-25 11:13:20 GMT 42.825668 -76.812256 26,350 90 456 -832
2018-09-25 11:13:14 GMT 42.825668 -76.812256 26,375 91 458 -832
2018-09-25 11:13:11 GMT 42.825825 -76.824448 26,400 91 458 -768
2018-09-25 11:13:04 GMT 42.826172 -76.852623 26,525 90 456 -832
2018-09-25 11:13:01 GMT 42.826172 -76.852623 26,550 90 456 -832
2018-09-25 11:12:56 GMT 42.826309 -76.865273 26,625 90 458 -832
2018-09-25 11:12:53 GMT 42.826382 -76.872711 26,650 90 460 -896
2018-09-25 11:12:50 GMT 42.826523 -76.884285 26,700 90 461 -768
2018-09-25 11:12:47 GMT 42.826756 -76.900436 26,750 90 460 -768
2018-09-25 11:12:44 GMT 42.826756 -76.900436 26,775 91 458 -704
2018-09-25 11:12:40 GMT 42.826859 -76.910240 26,850 91 455 -768
2018-09-25 11:12:36 GMT 42.827042 -76.922821 26,875 91 455 -832
2018-09-25 11:12:32 GMT 42.827133 -76.933037 26,925 90 455 -704
2018-09-25 11:12:29 GMT 42.827271 -76.944412 26,975 90 455 -576
2018-09-25 11:12:26 GMT 42.827408 -76.953735 27,000 90 455 -640
2018-09-25 11:12:21 GMT 42.827499 -76.963959 27,025 90 453 128
2018-09-25 11:12:17 GMT 42.827641 -76.974594 27,000 90 453 704
2018-09-25 11:12:14 GMT 42.827728 -76.983376 26,950 90 452 960
2018-09-25 11:12:11 GMT 42.827873 -76.993889 26,900 90 452 960
2018-09-25 11:12:08 GMT 42.828003 -77.004898 26,825 90 451 896
2018-09-25 11:12:04 GMT 42.828060 -77.012260 26,800 90 450 1024
2018-09-25 11:12:01 GMT 42.828197 -77.024689 26,700 90 450 1024
2018-09-25 11:11:57 GMT 42.828323 -77.035492 26,650 90 450 1280
2018-09-25 11:11:51 GMT 42.828526 -77.050522 26,500 90 450 1280
2018-09-25 11:11:48 GMT 42.828571 -77.058495 26,475 90 450 1088
2018-09-25 11:11:45 GMT 42.828690 -77.065895 26,425 90 449 1024
2018-09-25 11:11:42 GMT 42.828758 -77.074257 26,375 90 449 1024
2018-09-25 11:11:39 GMT 42.828850 -77.083481 26,325 90 449 960
2018-09-25 11:11:35 GMT 42.829010 -77.095215 26,250 90 448 1088
2018-09-25 11:11:29 GMT 42.829178 -77.115067 26,100 90 448 1344
2018-09-25 11:11:24 GMT 42.829269 -77.124092 26,050 90 448 1216
2018-09-25 11:11:21 GMT 42.829456 -77.137497 25,950 90 448 896
2018-09-25 11:11:18 GMT 42.829514 -77.145996 25,925 90 448 896
2018-09-25 11:11:15 GMT 42.829559 -77.151489 25,900 90 447 832
2018-09-25 11:11:08 GMT 42.829788 -77.170715 25,825 90 446 768
2018-09-25 11:11:05 GMT 42.829880 -77.181892 25,750 90 445 896
2018-09-25 11:11:02 GMT 42.829971 -77.188667 25,725 90 445 896
2018-09-25 11:10:58 GMT 42.830063 -77.201454 25,625 90 444 896
2018-09-25 11:10:52 GMT 42.830200 -77.215424 25,575 90 443 832
2018-09-25 11:10:49 GMT 42.830341 -77.227089 25,525 90 442 960
2018-09-25 11:10:46 GMT 42.830387 -77.232445 25,500 90 442 960
2018-09-25 11:10:42 GMT 42.830479 -77.244804 25,400 90 441 960
2018-09-25 11:10:37 GMT 42.830658 -77.259819 25,325 90 441 1152
2018-09-25 11:10:33 GMT 42.830750 -77.268631 25,275 90 441 1088
2018-09-25 11:10:29 GMT 42.830853 -77.282539 25,150 90 439 1280
2018-09-25 11:10:25 GMT 42.830933 -77.290794 25,100 90 439 1216
2018-09-25 11:10:21 GMT 42.831039 -77.304451 25,000 90 439 1344
2018-09-25 11:10:18 GMT 42.831085 -77.309944 24,950 90 439 1408
2018-09-25 11:10:15 GMT 42.831177 -77.320992 24,850 90 439 1280
2018-09-25 11:10:12 GMT 42.831253 -77.327019 24,800 90 438 1280
2018-09-25 11:10:07 GMT 42.831390 -77.340431 24,700 90 438 1216
2018-09-25 11:10:04 GMT 42.831455 -77.347610 24,625 90 438 1088
2018-09-25 11:10:01 GMT 42.831505 -77.355324 24,625 90 437 1024
2018-09-25 11:09:58 GMT 42.831619 -77.366684 24,525 90 437 1152
2018-09-25 11:09:54 GMT 42.831738 -77.385864 24,400 90 436 1216
2018-09-25 11:09:46 GMT 42.831875 -77.398094 24,200 90 435 1152
2018-09-25 11:09:41 GMT 42.831985 -77.411713 24,200 90 434 1216
2018-09-25 11:09:38 GMT 42.832031 -77.419250 24,150 90 433 1408
2018-09-25 11:09:34 GMT 42.832169 -77.431129 23,925 90 432 1280
2018-09-25 11:09:29 GMT 42.832260 -77.445312 23,950 90 432 1408
2018-09-25 11:09:24 GMT 42.832436 -77.468651 23,775 90 431 1280
2018-09-25 11:09:20 GMT 42.832436 -77.468651 23,775 90 431 1344
2018-09-25 11:09:16 GMT 42.832527 -77.480492 23,650 90 430 1472
2018-09-25 11:09:10 GMT 42.832672 -77.497238 23,525 90 429 1408
2018-09-25 11:09:06 GMT 42.832760 -77.511948 23,400 90 428 1280
2018-09-25 11:08:59 GMT 42.832855 -77.525284 23,300 90 427 1344
2018-09-25 11:08:55 GMT 42.832993 -77.536728 23,200 90 427 1216
2018-09-25 11:08:50 GMT 42.833084 -77.551018 23,100 90 425 1088
2018-09-25 11:08:47 GMT 42.833134 -77.559158 22,975 90 424 1216
2018-09-25 11:08:44 GMT 42.833179 -77.565437 22,975 90 424 1280
2018-09-25 11:08:41 GMT 42.833225 -77.573936 22,825 90 423 1600
2018-09-25 11:08:38 GMT 42.833275 -77.581398 22,850 90 423 1664
2018-09-25 11:08:34 GMT 42.833412 -77.592186 22,775 90 422 1536
2018-09-25 11:08:31 GMT 42.833496 -77.602119 22,625 90 422 1472
2018-09-25 11:08:28 GMT 42.833553 -77.608078 22,600 90 422 1408
2018-09-25 11:08:24 GMT 42.833645 -77.618736 22,500 90 421 1472
2018-09-25 11:08:19 GMT 42.833771 -77.633034 22,375 90 419 1344
2018-09-25 11:08:16 GMT 42.833832 -77.640640 22,325 90 418 1344
2018-09-25 11:08:13 GMT 42.833878 -77.646004 22,275 90 419 1344
2018-09-25 11:08:10 GMT 42.833954 -77.657242 22,175 90 418 1344
2018-09-25 11:08:07 GMT 42.833969 -77.664116 21,750 90 418 1344
2018-09-25 11:08:02 GMT 42.834019 -77.676674 22,025 90 417 1408
2018-09-25 11:07:57 GMT 42.834091 -77.690651 21,700 91 415 1536
2018-09-25 11:07:53 GMT 42.834183 -77.702339 21,750 90 415 1536
2018-09-25 11:07:46 GMT 42.834435 -77.717285 21,575 91 414 1600
2018-09-25 11:07:43 GMT 42.834595 -77.727310 21,525 91 413 1472
2018-09-25 11:07:39 GMT 42.834869 -77.738747 21,400 92 412 1152
2018-09-25 11:07:35 GMT 42.835087 -77.745468 21,375 92 412 1152
2018-09-25 11:07:32 GMT 42.835419 -77.756310 21,300 92 410 1152
2018-09-25 11:07:28 GMT 42.836018 -77.771233 21,175 93 407 1216
2018-09-25 11:07:20 GMT 42.836624 -77.783531 21,075 93 405 1216
2018-09-25 11:07:15 GMT 42.837368 -77.798767 21,000 93 404 1024
2018-09-25 11:07:11 GMT 42.837936 -77.810410 20,900 93 401 1024
2018-09-25 11:07:05 GMT 42.838760 -77.826508 20,775 93 398 1280
2018-09-25 11:07:00 GMT 42.839325 -77.838005 20,675 93 397 1344
2018-09-25 11:06:56 GMT 42.839722 -77.846504 20,550 93 396 1664
2018-09-25 11:06:53 GMT 42.839977 -77.851997 20,525 93 396 1600
2018-09-25 11:06:48 GMT 42.840630 -77.864944 20,400 93 395 1536
2018-09-25 11:06:44 GMT 42.841187 -77.876328 20,150 93 394 1472
2018-09-25 11:06:40 GMT 42.841606 -77.885612 20,200 93 394 1472
2018-09-25 11:06:37 GMT 42.841930 -77.891495 20,150 93 393 1472
2018-09-25 11:06:33 GMT 42.842583 -77.905228 19,950 93 391 1408
2018-09-25 11:06:29 GMT 42.842911 -77.912361 19,875 93 389 1472
2018-09-25 11:06:26 GMT 42.843430 -77.922707 19,850 93 389 1472
2018-09-25 11:06:22 GMT 42.843746 -77.929031 19,775 93 387 1664
2018-09-25 11:06:16 GMT 42.844540 -77.945580 19,575 93 387 1728
2018-09-25 11:06:11 GMT 42.845032 -77.955788 19,475 93 386 1856
2018-09-25 11:06:06 GMT 42.845703 -77.969841 19,275 93 385 2112
2018-09-25 11:06:00 GMT 42.846405 -77.983894 19,075 93 385 1984
2018-09-25 11:05:57 GMT 42.846634 -77.988998 19,025 93 385 1856
2018-09-25 11:05:51 GMT 42.847424 -78.004562 18,600 93 380 2112
2018-09-25 11:05:47 GMT 42.847916 -78.014809 18,700 93 382 1920
2018-09-25 11:05:40 GMT 42.848785 -78.032120 18,450 93 379 2240
2018-09-25 11:05:37 GMT 42.849197 -78.040680 18,325 93 380 2112
2018-09-25 11:05:31 GMT 42.849838 -78.053841 17,975 93 378 2368
2018-09-25 11:05:28 GMT 42.850113 -78.059776 17,975 93 378 2368
2018-09-25 11:05:23 GMT 42.850777 -78.074539 17,775 93 378 2496
2018-09-25 11:05:19 GMT 42.851151 -78.082123 17,575 93 378 2560
2018-09-25 11:05:16 GMT 42.851521 -78.090691 17,500 93 378 2496
2018-09-25 11:05:13 GMT 42.851852 -78.097588 17,375 93 376 1984
2018-09-25 11:05:10 GMT 42.852032 -78.101151 17,325 93 378 2432
2018-09-25 11:05:07 GMT 42.852360 -78.108604 17,100 93 371 2560
2018-09-25 11:05:04 GMT 42.852684 -78.115410 17,075 93 378 2432
2018-09-25 11:05:00 GMT 42.853317 -78.129143 16,850 93 377 2240
2018-09-25 11:04:54 GMT 42.853912 -78.141472 16,675 93 373 1920
2018-09-25 11:04:49 GMT 42.854462 -78.153801 16,550 93 374 1856
2018-09-25 11:04:46 GMT 42.854691 -78.158463 16,450 93 372 2176
2018-09-25 11:04:43 GMT 42.855015 -78.165504 16,350 93 372 2176
2018-09-25 11:04:37 GMT 42.856083 -78.189568 15,975 93 371 2496
2018-09-25 11:04:34 GMT 42.856083 -78.189568 15,925 93 370 2624
2018-09-25 11:04:29 GMT 42.856567 -78.199532 15,675 93 370 2816
2018-09-25 11:04:26 GMT 42.856876 -78.206566 15,600 93 371 2880
2018-09-25 11:04:22 GMT 42.857254 -78.214226 15,450 93 371 2880
2018-09-25 11:04:17 GMT 42.857853 -78.228020 15,150 93 371 2880
2018-09-25 11:04:13 GMT 42.858273 -78.237373 15,000 93 371 2112
2018-09-25 11:04:08 GMT 42.858829 -78.249275 14,875 93 366 320
2018-09-25 11:04:05 GMT 42.859222 -78.257339 14,850 93 367 512
2018-09-25 11:04:02 GMT 42.859436 -78.262352 14,825 93 365 64
2018-09-25 11:03:55 GMT 42.860134 -78.277977 14,825 93 364 320
2018-09-25 11:03:52 GMT 42.860504 -78.286942 14,775 93 364 896
2018-09-25 11:03:47 GMT 42.861008 -78.297516 14,675 93 363 1536
2018-09-25 11:03:44 GMT 42.861576 -78.310020 14,550 93 362 1984
2018-09-25 11:03:41 GMT 42.861576 -78.310020 14,500 93 361 2368
2018-09-25 11:03:37 GMT 42.862087 -78.321602 14,250 93 361 2496
2018-09-25 11:03:34 GMT 42.862244 -78.325874 14,250 93 361 2496
2018-09-25 11:03:30 GMT 42.862602 -78.333633 14,075 93 360 2432
2018-09-25 11:03:25 GMT 42.863480 -78.353920 13,800 93 358 2432
2018-09-25 11:03:22 GMT 42.863480 -78.353920 13,575 93 357 2560
2018-09-25 11:03:19 GMT 42.863716 -78.358810 13,600 93 356 2624
2018-09-25 11:03:14 GMT 42.864368 -78.373131 13,325 93 355 2496
2018-09-25 11:03:10 GMT 42.864742 -78.381958 13,175 93 354 2560
2018-09-25 11:03:04 GMT 42.865540 -78.400223 12,900 93 352 2816
2018-09-25 11:03:01 GMT 42.865768 -78.405525 12,675 93 351 2880
2018-09-25 11:02:53 GMT 42.866409 -78.419708 12,400 93 350 2368
2018-09-25 11:02:48 GMT 42.866791 -78.428909 12,250 93 349 2304
2018-09-25 11:02:42 GMT 42.867393 -78.442055 12,025 93 345 2368
2018-09-25 11:02:37 GMT 42.867828 -78.452728 11,900 93 345 2368
2018-09-25 11:02:32 GMT 42.868233 -78.461868 11,650 93 342 2368
2018-09-25 11:02:29 GMT 42.868607 -78.470566 11,500 93 341 2304
2018-09-25 11:02:26 GMT 42.868881 -78.476814 11,400 93 339 2304
2018-09-25 11:02:22 GMT 42.869293 -78.486328 11,225 93 335 1920
2018-09-25 11:02:19 GMT 42.869568 -78.492973 11,150 93 335 1920
2018-09-25 11:02:16 GMT 42.870163 -78.506516 10,950 93 333 1856
2018-09-25 11:02:11 GMT 42.870163 -78.506516 10,950 93 330 1856
2018-09-25 11:02:08 GMT 42.870529 -78.514816 10,825 93 325 1472
2018-09-25 11:02:04 GMT 42.870850 -78.522797 10,750 93 324 1408
2018-09-25 11:02:01 GMT 42.871166 -78.529617 10,600 93 313 1664
2018-09-25 11:01:57 GMT 42.871490 -78.536942 10,500 93 307 0
2018-09-25 11:01:53 GMT 42.871864 -78.545509 10,400 93 308 2752
2018-09-25 11:01:50 GMT 42.872040 -78.549629 10,300 93 307 3072
2018-09-25 11:01:47 GMT 42.872360 -78.557358 10,050 93 306 3520
2018-09-25 11:01:43 GMT 42.872608 -78.563164 9,875 93 306 3520
2018-09-25 11:01:40 GMT 42.872890 -78.570099 9,675 93 306 3200
2018-09-25 11:01:34 GMT 42.873367 -78.581375 9,400 93 305 2560
2018-09-25 11:01:28 GMT 42.873871 -78.593575 9,100 93 303 3136
2018-09-25 11:01:23 GMT 42.874241 -78.602272 8,925 93 303 3392
2018-09-25 11:01:17 GMT 42.874798 -78.615219 8,450 93 303 3840
2018-09-25 11:01:14 GMT 42.875015 -78.620270 8,275 93 303 3840
2018-09-25 11:01:06 GMT 42.875587 -78.634445 7,775 93 304 3840
2018-09-25 11:01:02 GMT 42.875820 -78.640526 7,600 93 304 3712
2018-09-25 11:00:58 GMT 42.876240 -78.651123 7,250 93 305 3712
2018-09-25 11:00:53 GMT 42.876572 -78.660004 6,975 93 305 3456
2018-09-25 11:00:45 GMT 42.877171 -78.675774 6,525 92 303 3136
2018-09-25 11:00:41 GMT 42.877350 -78.680824 6,425 92 303 3136
2018-09-25 11:00:37 GMT 42.877762 -78.691429 6,100 92 300 3136
2018-09-25 11:00:34 GMT 42.877899 -78.695961 5,975 92 297 3136
2018-09-25 11:00:29 GMT 42.878242 -78.704552 5,750 92 296 3008
2018-09-25 11:00:26 GMT 42.878448 -78.710144 5,600 93 294 3136
2018-09-25 11:00:20 GMT 42.878895 -78.720703 5,300 93 291 2944
2018-09-25 11:00:16 GMT 42.879639 -78.730247 5,075 99 284 2432
2018-09-25 11:00:09 GMT 42.881359 -78.739731 4,850 106 275 2560
2018-09-25 11:00:04 GMT 42.883640 -78.747253 4,625 116 262 2368
2018-09-25 10:59:58 GMT 42.887413 -78.755295 4,425 127 247 1984
2018-09-25 10:59:55 GMT 42.890854 -78.760414 4,350 136 229 960
2018-09-25 10:59:50 GMT 42.895020 -78.765007 4,225 146 211 1536
2018-09-25 10:59:43 GMT 42.899422 -78.768440 4,075 155 195 1856
2018-09-25 10:59:38 GMT 42.904682 -78.770729 3,825 166 179 2560
2018-09-25 10:59:33 GMT 42.907803 -78.771126 3,625 182 169 3520
2018-09-25 10:59:30 GMT 42.913879 -78.769165 3,200 198 164 2752
2018-09-25 10:59:22 GMT 42.915436 -78.767883 3,125 216 161 1984
2018-09-25 10:59:16 GMT 42.919163 -78.762558 2,650 231 157 2432
2018-09-25 10:59:12 GMT 42.920326 -78.760399 2,725 234 153 2880
2018-09-25 10:59:07 GMT 42.922653 -78.756081 2,475 233 148 2560
2018-09-25 10:59:01 GMT 42.924843 -78.752159 2,225 232 145 3136
2018-09-25 10:58:57 GMT 42.926971 -78.748657 1,950 231 143 3392
2018-09-25 10:58:51 GMT 42.929264 -78.745033 1,700 228 143 3008
2018-09-25 10:58:40 GMT 42.934013 -78.738228 1,075 225 144 3392
2018-09-25 10:58:30 GMT 42.939224 -78.731232 575 225 147 1600
2018-09-25 10:58:19 GMT 42.943771 -78.725220 550 224 109 -64
2018-09-25 10:58:08 GMT 42.947067 -78.720871 550 224 59 0
2018-09-25 10:57:57 GMT 42.948223 -78.719353 0 233 15
2018-09-25 10:57:48 GMT 42.948326 -78.718636 0 300 14
2018-09-25 10:57:36 GMT 42.947746 -78.718170 0 8 13
2018-09-25 10:57:27 GMT 42.947239 -78.718590 0 45 18
2018-09-25 10:57:15 GMT 42.946465 -78.719589 0 45 18
2018-09-25 10:57:06 GMT 42.945988 -78.720230 0 45 20
2018-09-25 10:56:53 GMT 42.944916 -78.721642 0 45 26
2018-09-25 10:56:44 GMT 42.944229 -78.722534 0 45 26
2018-09-25 10:56:35 GMT 42.943428 -78.723587 0 45 22
2018-09-25 10:56:23 GMT 42.942730 -78.724533 0 45 19
2018-09-25 10:56:14 GMT 42.942101 -78.725349 0 45 18
2018-09-25 10:56:02 GMT 42.941425 -78.726242 0 45 19
2018-09-25 10:55:51 GMT 42.940739 -78.727158 0 45 19
2018-09-25 10:55:42 GMT 42.940189 -78.727844 0 42 18
2018-09-25 10:55:31 GMT 42.939575 -78.728668 0 45 15
2018-09-25 10:55:21 GMT 42.939110 -78.729256 0 45 13
2018-09-25 10:55:10 GMT 42.938690 -78.729752 0 14 10
2018-09-25 10:55:00 GMT 42.938232 -78.729622 0 320 10
2018-09-25 10:54:48 GMT 42.937969 -78.729187 0 312 8
2018-09-25 10:54:39 GMT 42.937714 -78.728828 0 317 8

Making use of Plane Finder data

You are free to use the raw flight data, aircraft information and images provided in this report for your own purposes provided the data is correctly attributed to Plane Finder. We ask that you please credit Plane Finder and link to planefinder.net in close proximity to the content.

Optionally one of the following logos (no smaller then 150x24px) can be used and must link to planefinder.net

Embedding the Plane Finder map

You are welcome to embed the Plane Finder playback map on your website to offer visitors a more interactive experience. We suggest using the following HTML code:

<iframe src="//planefinder.net/data/report/RPA5893-N809MD-7700-squawk-2018-09-25/map" width="800" height="600" seamless="seamless"></iframe>

Where our data comes from

Plane Finder has a global network of data feeds and antenna radars that receive data broadcast directly from aircraft. The primary technologies used are ADS-B and MLAT. We also show feeds from the FAA and a FLARM glider feed.

Click here to find out more about the Plane Finder network.

How we collect our data